createdAt,value
2023-10-01T00:01:57.113Z,9.83
2023-10-01T00:04:26.269Z,8.80
2023-10-01T00:06:55.524Z,8.70
2023-10-01T00:09:24.590Z,8.77
2023-10-01T00:11:53.517Z,10.07
2023-10-01T00:14:28.181Z,9.10
2023-10-01T00:17:00.407Z,8.70
2023-10-01T00:19:29.602Z,8.50
2023-10-01T00:21:58.994Z,8.30
2023-10-01T00:24:28.136Z,8.90
2023-10-01T00:26:57.296Z,8.27
2023-10-01T00:29:26.244Z,8.40
2023-10-01T00:31:56.636Z,8.90
2023-10-01T00:34:27.169Z,8.43
2023-10-01T00:36:56.360Z,8.30
2023-10-01T00:39:25.305Z,8.40
2023-10-01T00:41:54.337Z,9.07
2023-10-01T00:44:23.346Z,8.60
2023-10-01T00:46:52.497Z,8.60
2023-10-01T00:49:24.418Z,8.90
2023-10-01T00:51:55.221Z,8.73
2023-10-01T00:54:24.433Z,9.43
2023-10-01T00:56:53.384Z,8.50
2023-10-01T00:59:22.502Z,9.83
2023-10-01T01:01:51.893Z,9.10
2023-10-01T01:04:24.237Z,8.60
2023-10-01T01:06:55.942Z,9.10
2023-10-01T01:09:25.454Z,14.37
2023-10-01T01:11:54.460Z,11.60
2023-10-01T01:14:23.721Z,9.93
2023-10-01T01:16:53.529Z,10.60
2023-10-01T01:19:22.649Z,8.50
2023-10-01T01:21:51.989Z,8.83
2023-10-01T01:24:24.341Z,9.33
2023-10-01T01:26:53.855Z,9.03
2023-10-01T01:29:30.991Z,9.77
2023-10-01T01:32:08.915Z,9.77
2023-10-01T01:34:39.115Z,9.33
2023-10-01T01:37:09.216Z,8.60
2023-10-01T01:39:50.427Z,8.50
2023-10-01T01:42:22.694Z,9.30
2023-10-01T01:45:11.710Z,8.87
2023-10-01T01:47:40.799Z,8.60
2023-10-01T01:50:19.880Z,8.57
2023-10-01T01:52:50.991Z,8.53
2023-10-01T01:55:31.816Z,8.43
2023-10-01T01:58:10.481Z,8.83
2023-10-01T02:00:48.215Z,9.80
2023-10-01T02:03:19.352Z,8.90
2023-10-01T02:05:50.624Z,8.30
2023-10-01T02:08:26.191Z,8.50
2023-10-01T02:10:57.668Z,8.73
2023-10-01T02:13:28.501Z,8.07
2023-10-01T02:16:17.883Z,8.00
2023-10-01T02:18:57.809Z,8.50
2023-10-01T02:21:44.447Z,7.53
2023-10-01T02:24:15.336Z,7.67
2023-10-01T02:26:47.705Z,8.17
2023-10-01T02:29:17.779Z,10.07
2023-10-01T02:31:49.976Z,7.33
2023-10-01T02:34:21.413Z,6.60
2023-10-01T02:36:51.743Z,7.57
2023-10-01T02:39:28.746Z,8.70
2023-10-01T02:42:11.076Z,7.60
2023-10-01T02:44:40.431Z,6.90
2023-10-01T02:47:18.788Z,6.77
2023-10-01T02:49:51.296Z,7.07
2023-10-01T02:52:26.919Z,6.83
2023-10-01T02:54:59.087Z,6.70
2023-10-01T02:57:35.044Z,6.83
2023-10-01T03:00:21.687Z,7.13
2023-10-01T03:02:55.661Z,6.03
2023-10-01T03:05:30.920Z,6.57
2023-10-01T03:08:05.493Z,7.50
2023-10-01T03:10:34.250Z,7.33
2023-10-01T03:13:17.014Z,7.50
2023-10-01T03:16:05.352Z,7.87
2023-10-01T03:18:37.507Z,6.83
2023-10-01T03:21:08.710Z,7.83
2023-10-01T03:23:37.873Z,7.30
2023-10-01T03:26:11.179Z,7.97
2023-10-01T03:28:55.642Z,7.37
2023-10-01T03:31:25.197Z,5.80
2023-10-01T03:33:55.526Z,6.03
2023-10-01T03:36:27.592Z,5.50
2023-10-01T03:39:01.534Z,5.37
2023-10-01T03:41:50.603Z,5.47
2023-10-01T03:44:41.227Z,6.47
2023-10-01T03:47:10.167Z,7.20
2023-10-01T03:49:45.642Z,6.97
2023-10-01T03:52:16.450Z,7.27
2023-10-01T03:55:01.407Z,6.33
2023-10-01T03:57:31.755Z,5.50
2023-10-01T04:00:22.134Z,4.50
2023-10-01T04:02:51.097Z,4.37
2023-10-01T04:05:32.603Z,5.20
2023-10-01T04:08:07.897Z,4.27
2023-10-01T04:10:39.773Z,5.17
2023-10-01T04:13:25.302Z,4.93
2023-10-01T04:15:58.103Z,5.10
2023-10-01T04:18:30.470Z,4.87
2023-10-01T04:21:18.197Z,4.80
2023-10-01T04:23:50.007Z,5.57
2023-10-01T04:26:20.173Z,5.40
2023-10-01T04:28:52.210Z,4.77
2023-10-01T04:31:44.068Z,6.03
2023-10-01T04:34:14.214Z,4.70
2023-10-01T04:36:44.468Z,5.10
2023-10-01T04:39:14.026Z,4.77
2023-10-01T04:41:43.016Z,4.77
2023-10-01T04:44:15.106Z,4.70
2023-10-01T04:46:47.431Z,5.20
2023-10-01T04:49:44.414Z,5.57
2023-10-01T04:52:13.872Z,4.37
2023-10-01T04:54:46.507Z,5.07
2023-10-01T04:57:15.723Z,5.07
2023-10-01T04:59:59.057Z,5.07
2023-10-01T05:02:33.014Z,6.00
2023-10-01T05:05:12.422Z,4.97
2023-10-01T05:07:43.889Z,5.33
2023-10-01T05:10:13.587Z,5.07
2023-10-01T05:12:46.266Z,5.33
2023-10-01T05:15:26.694Z,5.33
2023-10-01T05:17:58.184Z,5.80
2023-10-01T05:20:28.020Z,5.10
2023-10-01T05:23:00.588Z,6.00
2023-10-01T05:25:33.293Z,6.20
2023-10-01T05:28:07.712Z,5.80
2023-10-01T05:30:39.761Z,5.73
2023-10-01T05:33:13.369Z,6.33
2023-10-01T05:35:46.078Z,7.20
2023-10-01T05:38:18.180Z,5.60
2023-10-01T05:40:47.534Z,6.40
2023-10-01T05:43:16.927Z,5.70
2023-10-01T05:45:52.606Z,5.73
2023-10-01T05:48:24.834Z,6.47
2023-10-01T05:50:54.712Z,6.30
2023-10-01T05:53:23.705Z,6.97
2023-10-01T05:55:52.645Z,6.70
2023-10-01T05:58:23.519Z,5.73
2023-10-01T06:01:07.619Z,6.03
2023-10-01T06:03:42.501Z,5.30
2023-10-01T06:06:15.598Z,5.73
2023-10-01T06:08:51.216Z,5.07
2023-10-01T06:11:39.707Z,5.30
2023-10-01T06:14:09.676Z,5.10
2023-10-01T06:16:40.284Z,5.40
2023-10-01T06:19:13.504Z,5.50
2023-10-01T06:21:42.718Z,6.20
2023-10-01T06:24:12.565Z,6.07
2023-10-01T06:26:44.646Z,5.10
2023-10-01T06:29:15.069Z,6.77
2023-10-01T06:32:02.218Z,5.40
2023-10-01T06:34:33.810Z,5.40
2023-10-01T06:37:03.750Z,5.60
2023-10-01T06:39:36.527Z,5.37
2023-10-01T06:42:21.494Z,5.70
2023-10-01T06:44:54.214Z,5.80
2023-10-01T06:47:25.422Z,5.93
2023-10-01T06:50:09.329Z,5.97
2023-10-01T06:52:43.746Z,6.03
2023-10-01T06:55:27.749Z,6.33
2023-10-01T06:57:57.628Z,6.00
2023-10-01T07:00:27.360Z,6.07
2023-10-01T07:03:15.192Z,6.60
2023-10-01T07:05:48.049Z,6.40
2023-10-01T07:08:19.634Z,6.00
2023-10-01T07:10:52.587Z,6.40
2023-10-01T07:13:23.805Z,6.37
2023-10-01T07:15:54.137Z,6.20
2023-10-01T07:18:23.455Z,5.97
2023-10-01T07:20:54.087Z,6.50
2023-10-01T07:23:23.793Z,6.30
2023-10-01T07:26:02.320Z,5.87
2023-10-01T07:28:31.882Z,7.70
2023-10-01T07:31:04.137Z,7.10
2023-10-01T07:33:34.929Z,7.60
2023-10-01T07:36:12.900Z,7.13
2023-10-01T07:38:50.840Z,5.90
2023-10-01T07:41:21.713Z,6.93
2023-10-01T07:43:50.804Z,6.77
2023-10-01T07:46:21.227Z,6.53
2023-10-01T07:48:53.292Z,5.93
2023-10-01T07:51:28.621Z,6.13
2023-10-01T07:54:01.472Z,6.27
2023-10-01T07:56:30.649Z,7.17
2023-10-01T07:59:19.011Z,6.37
2023-10-01T08:02:00.977Z,6.40
2023-10-01T08:04:48.024Z,8.27
2023-10-01T08:07:19.277Z,7.50
2023-10-01T08:09:52.929Z,6.63
2023-10-01T08:12:30.385Z,8.23
2023-10-01T08:15:19.834Z,8.13
2023-10-01T08:17:49.128Z,6.80
2023-10-01T08:20:18.712Z,6.90
2023-10-01T08:23:03.210Z,7.60
2023-10-01T08:25:34.241Z,7.10
2023-10-01T08:28:10.557Z,6.70
2023-10-01T08:30:41.461Z,7.20
2023-10-01T08:33:20.621Z,7.27
2023-10-01T08:35:58.321Z,9.53
2023-10-01T08:38:31.304Z,7.60
2023-10-01T08:41:02.400Z,6.73
2023-10-01T08:43:36.525Z,7.20
2023-10-01T08:46:14.454Z,8.50
2023-10-01T08:48:44.797Z,6.60
2023-10-01T08:51:18.024Z,7.57
2023-10-01T08:53:49.166Z,7.67
2023-10-01T08:56:33.769Z,9.50
2023-10-01T08:59:23.079Z,7.07
2023-10-01T09:01:54.166Z,6.70
2023-10-01T09:04:45.738Z,6.60
2023-10-01T09:07:19.919Z,7.50
2023-10-01T09:10:09.187Z,7.77
2023-10-01T09:12:47.409Z,6.80
2023-10-01T09:15:28.964Z,6.87
2023-10-01T09:18:12.293Z,7.10
2023-10-01T09:20:43.814Z,8.67
2023-10-01T09:23:13.547Z,7.10
2023-10-01T09:25:44.528Z,8.53
2023-10-01T09:28:31.057Z,7.07
2023-10-01T09:31:03.692Z,7.53
2023-10-01T09:33:33.899Z,10.83
2023-10-01T09:36:04.643Z,8.50
2023-10-01T09:38:34.453Z,7.00
2023-10-01T09:41:05.480Z,9.40
2023-10-01T09:43:37.488Z,7.80
2023-10-01T09:46:09.268Z,7.80
2023-10-01T09:48:50.477Z,8.50
2023-10-01T09:51:25.264Z,7.57
2023-10-01T09:54:01.909Z,8.53
2023-10-01T09:56:48.331Z,7.87
2023-10-01T09:59:18.385Z,7.90
2023-10-01T10:01:47.930Z,8.70
2023-10-01T10:04:22.144Z,7.90
2023-10-01T10:07:01.544Z,8.13
2023-10-01T10:09:33.310Z,7.83
2023-10-01T10:12:09.662Z,8.60
2023-10-01T10:14:58.140Z,7.57
2023-10-01T10:17:40.238Z,8.70
2023-10-01T10:23:17.598Z,8.80
2023-10-01T10:25:47.304Z,8.83
2023-10-01T10:28:27.837Z,8.20
2023-10-01T10:31:32.257Z,9.13
2023-10-01T10:34:27.651Z,7.97
2023-10-01T10:36:56.676Z,9.63
2023-10-01T10:40:28.123Z,9.53
2023-10-01T10:43:23.457Z,8.20
2023-10-01T10:46:07.590Z,8.77
2023-10-01T10:49:04.871Z,7.60
2023-10-01T10:51:49.749Z,7.17
2023-10-01T10:54:32.351Z,8.17
2023-10-01T10:57:07.042Z,8.53
2023-10-01T10:59:37.033Z,7.30
2023-10-01T11:02:08.763Z,8.43
2023-10-01T11:04:43.506Z,9.57
2023-10-01T11:07:14.606Z,7.90
2023-10-01T11:09:43.681Z,8.77
2023-10-01T11:12:23.163Z,7.60
2023-10-01T11:15:21.423Z,9.90
2023-10-01T11:18:02.714Z,9.90
2023-10-01T11:20:35.487Z,8.63
2023-10-01T11:23:10.232Z,9.00
2023-10-01T11:25:42.022Z,8.27
2023-10-01T11:28:11.522Z,9.20
2023-10-01T11:30:44.445Z,8.70
2023-10-01T11:33:17.649Z,11.23
2023-10-01T11:36:09.293Z,9.30
2023-10-01T11:38:41.649Z,10.40
2023-10-01T11:41:11.511Z,8.73
2023-10-01T11:43:43.578Z,8.67
2023-10-01T11:46:23.184Z,8.60
2023-10-01T11:49:01.616Z,8.93
2023-10-01T11:51:33.711Z,8.40
2023-10-01T11:54:14.742Z,8.80
2023-10-01T11:56:46.277Z,9.10
2023-10-01T11:59:20.598Z,8.20
2023-10-01T12:01:52.555Z,8.93
2023-10-01T12:04:45.568Z,9.50
2023-10-01T12:07:19.236Z,8.67
2023-10-01T12:09:52.665Z,9.43
2023-10-01T12:12:23.412Z,9.17
2023-10-01T12:14:55.445Z,7.97
2023-10-01T12:17:26.733Z,8.20
2023-10-01T12:20:01.394Z,8.97
2023-10-01T12:22:32.857Z,9.70
2023-10-01T12:25:02.909Z,8.90
2023-10-01T12:27:42.306Z,9.27
2023-10-01T12:30:31.713Z,8.40
2023-10-01T12:33:05.337Z,8.90
2023-10-01T12:35:40.318Z,9.47
2023-10-01T12:38:29.549Z,12.97
2023-10-01T12:40:58.732Z,8.57
2023-10-01T12:43:39.846Z,10.13
2023-10-01T12:46:11.174Z,9.57
2023-10-01T12:48:41.496Z,8.90
2023-10-01T12:51:14.315Z,8.00
2023-10-01T12:53:49.506Z,9.30
2023-10-01T12:56:22.836Z,8.23
2023-10-01T12:58:57.320Z,9.07
2023-10-01T13:01:34.221Z,8.97
2023-10-01T13:04:23.416Z,8.50
2023-10-01T13:07:02.611Z,8.33
2023-10-01T13:09:52.517Z,9.17
2023-10-01T13:12:26.419Z,8.70
2023-10-01T13:15:13.630Z,9.03
2023-10-01T13:17:46.228Z,8.30
2023-10-01T13:20:28.336Z,8.40
2023-10-01T13:23:08.450Z,10.00
2023-10-01T13:25:39.160Z,10.00
2023-10-01T13:28:09.250Z,9.93
2023-10-01T13:30:53.815Z,9.03
2023-10-01T13:33:24.818Z,9.93
2023-10-01T13:35:58.834Z,9.60
2023-10-01T13:38:58.420Z,9.30
2023-10-01T13:41:45.843Z,9.27
2023-10-01T13:44:32.652Z,8.97
2023-10-01T13:47:19.423Z,8.13
2023-10-01T13:50:06.949Z,9.83
2023-10-01T13:52:53.651Z,8.53
2023-10-01T13:55:56.399Z,9.07
2023-10-01T13:58:44.178Z,13.23
2023-10-01T14:01:31.209Z,9.43
2023-10-01T14:04:18.240Z,9.20
2023-10-01T14:07:04.910Z,8.83
2023-10-01T14:09:50.808Z,9.47
2023-10-01T14:12:36.273Z,8.37
2023-10-01T14:15:06.598Z,8.57
2023-10-01T14:17:35.751Z,9.83
2023-10-01T14:20:10.350Z,13.30
2023-10-01T14:22:51.377Z,8.00
2023-10-01T14:25:22.142Z,8.20
2023-10-01T14:27:52.928Z,8.10
2023-10-01T14:30:28.410Z,7.63
2023-10-01T14:33:00.383Z,8.40
2023-10-01T14:35:39.246Z,9.30
2023-10-01T14:38:08.586Z,8.67
2023-10-01T14:40:38.027Z,8.30
2023-10-01T14:43:08.562Z,8.60
2023-10-01T14:45:45.095Z,7.60
2023-10-01T14:48:14.238Z,8.67
2023-10-01T14:50:43.325Z,9.30
2023-10-01T14:53:14.076Z,7.50
2023-10-01T14:55:44.168Z,7.60
2023-10-01T14:58:16.768Z,8.80
2023-10-01T15:00:56.107Z,9.67
2023-10-01T15:03:55.508Z,8.47
2023-10-01T15:06:25.865Z,8.67
2023-10-01T15:09:01.628Z,7.67
2023-10-01T15:11:32.905Z,7.53
2023-10-01T15:14:14.167Z,8.10
2023-10-01T15:17:09.078Z,8.27
2023-10-01T15:19:49.560Z,8.57
2023-10-01T15:22:20.308Z,8.60
2023-10-01T15:24:50.335Z,7.40
2023-10-01T15:27:25.973Z,8.40
2023-10-01T15:29:58.601Z,8.00
2023-10-01T15:32:32.098Z,8.43
2023-10-01T15:35:01.643Z,9.80
2023-10-01T15:37:33.391Z,8.50
2023-10-01T15:40:23.443Z,7.70
2023-10-01T15:42:55.889Z,8.80
2023-10-01T15:45:27.253Z,9.27
2023-10-01T15:48:01.007Z,9.93
2023-10-01T15:50:40.829Z,8.33
2023-10-01T15:53:19.675Z,7.60
2023-10-01T15:56:00.382Z,7.93
2023-10-01T15:58:29.730Z,8.60
2023-10-01T16:01:01.338Z,7.70
2023-10-01T16:03:34.007Z,8.83
2023-10-01T16:06:11.443Z,9.00
2023-10-01T16:08:45.108Z,8.77
2023-10-01T16:11:15.444Z,8.30
2023-10-01T16:13:55.396Z,8.00
2023-10-01T16:16:28.877Z,9.83
2023-10-01T16:19:02.166Z,9.00
2023-10-01T16:21:33.759Z,10.47
2023-10-01T16:24:04.465Z,8.20
2023-10-01T16:26:34.486Z,9.90
2023-10-01T16:29:08.869Z,8.60
2023-10-01T16:31:41.429Z,8.70
2023-10-01T16:34:10.786Z,8.60
2023-10-01T16:36:40.286Z,10.27
2023-10-01T16:39:19.332Z,9.13
2023-10-01T16:41:51.309Z,8.00
2023-10-01T16:44:21.071Z,10.20
2023-10-01T16:46:59.546Z,9.90
2023-10-01T16:49:29.320Z,9.40
2023-10-01T16:51:59.275Z,9.50
2023-10-01T16:54:40.080Z,8.37
2023-10-01T16:57:14.436Z,8.53
2023-10-01T16:59:57.771Z,8.73
2023-10-01T17:02:31.246Z,10.60
2023-10-01T17:05:07.935Z,9.70
2023-10-01T17:07:43.148Z,8.97
2023-10-01T17:10:15.308Z,9.00
2023-10-01T17:12:45.545Z,9.83
2023-10-01T17:15:42.984Z,8.47
2023-10-01T17:18:18.906Z,9.30
2023-10-01T17:20:52.366Z,8.73
2023-10-01T17:23:22.305Z,8.80
2023-10-01T17:26:00.733Z,8.73
2023-10-01T17:28:50.278Z,9.20
2023-10-01T17:31:20.527Z,9.80
2023-10-01T17:33:52.214Z,8.20
2023-10-01T17:36:21.384Z,8.43
2023-10-01T17:38:51.858Z,9.27
2023-10-01T17:41:21.847Z,9.30
2023-10-01T17:43:59.870Z,8.63
2023-10-01T17:46:36.369Z,8.90
2023-10-01T17:49:10.137Z,9.23
2023-10-01T17:51:45.336Z,9.27
2023-10-01T17:54:19.341Z,9.30
2023-10-01T17:56:48.435Z,11.20
2023-10-01T17:59:19.854Z,8.87
2023-10-01T18:01:53.522Z,9.10
2023-10-01T18:04:25.625Z,9.03
2023-10-01T18:06:57.565Z,9.33
2023-10-01T18:09:28.361Z,10.20
2023-10-01T18:12:04.271Z,9.07
2023-10-01T18:14:34.995Z,8.60
2023-10-01T18:17:05.614Z,9.43
2023-10-01T18:19:48.911Z,8.47
2023-10-01T18:22:18.617Z,10.37
2023-10-01T18:24:47.744Z,9.27
2023-10-01T18:27:24.975Z,8.57
2023-10-01T18:29:58.855Z,10.33
2023-10-01T18:32:28.950Z,9.87
2023-10-01T18:34:59.676Z,9.90
2023-10-01T18:37:37.511Z,13.67
2023-10-01T18:40:15.011Z,9.70
2023-10-01T18:42:44.768Z,8.87
2023-10-01T18:45:13.753Z,9.67
2023-10-01T18:47:42.849Z,9.00
2023-10-01T18:50:16.078Z,8.97
2023-10-01T18:52:45.357Z,9.93
2023-10-01T18:55:15.715Z,10.40
2023-10-01T18:57:45.099Z,9.43
2023-10-01T19:00:22.600Z,11.93
2023-10-01T19:02:52.837Z,9.60
2023-10-01T19:05:23.392Z,8.77
2023-10-01T19:07:52.547Z,9.13
2023-10-01T19:10:21.757Z,9.67
2023-10-01T19:12:51.053Z,8.20
2023-10-01T19:15:21.929Z,9.97
2023-10-01T19:17:51.301Z,9.27
2023-10-01T19:20:22.967Z,9.50
2023-10-01T19:22:58.973Z,9.30
2023-10-01T19:25:30.520Z,9.77
2023-10-01T19:28:02.291Z,8.70
2023-10-01T19:30:37.004Z,9.63
2023-10-01T19:33:07.376Z,10.77
2023-10-01T19:35:39.160Z,8.63
2023-10-01T19:38:09.702Z,10.10
2023-10-01T19:40:39.132Z,9.20
2023-10-01T19:43:08.669Z,9.20
2023-10-01T19:45:39.020Z,9.57
2023-10-01T19:48:09.407Z,10.10
2023-10-01T19:50:42.417Z,9.20
2023-10-01T19:53:24.277Z,9.97
2023-10-01T19:55:56.860Z,11.30
2023-10-01T19:58:32.694Z,11.13
2023-10-01T20:01:16.832Z,10.07
2023-10-01T20:03:48.614Z,10.70
2023-10-01T20:06:22.396Z,11.60
2023-10-01T20:08:57.215Z,10.90
2023-10-01T20:11:29.814Z,11.27
2023-10-01T20:14:00.332Z,10.33
2023-10-01T20:16:32.109Z,9.07
2023-10-01T20:19:01.874Z,11.70
2023-10-01T20:21:32.714Z,9.50
2023-10-01T20:24:02.470Z,10.40
2023-10-01T20:26:33.635Z,9.50
2023-10-01T20:29:03.516Z,9.50
2023-10-01T20:31:32.763Z,9.13
2023-10-01T20:34:02.502Z,9.30
2023-10-01T20:36:39.087Z,9.23
2023-10-01T20:39:09.017Z,9.93
2023-10-01T20:41:38.295Z,10.30
2023-10-01T20:44:08.527Z,10.37
2023-10-01T20:46:38.330Z,10.13
2023-10-01T20:49:09.112Z,9.77
2023-10-01T20:51:43.609Z,9.70
2023-10-01T20:54:16.595Z,10.87
2023-10-01T20:56:53.844Z,9.83
2023-10-01T20:59:23.880Z,9.77
2023-10-01T21:01:55.172Z,10.10
2023-10-01T21:04:27.092Z,10.57
2023-10-01T21:07:03.398Z,10.20
2023-10-01T21:09:39.570Z,10.73
2023-10-01T21:12:13.473Z,11.50
2023-10-01T21:14:48.433Z,10.37
2023-10-01T21:17:23.672Z,9.40
2023-10-01T21:20:11.951Z,10.73
2023-10-01T21:22:44.470Z,11.13
2023-10-01T21:25:24.668Z,11.17
2023-10-01T21:27:55.378Z,11.53
2023-10-01T21:30:25.052Z,11.33
2023-10-01T21:32:56.706Z,11.33
2023-10-01T21:35:27.495Z,10.67
2023-10-01T21:38:09.515Z,11.07
2023-10-01T21:40:39.387Z,12.27
2023-10-01T21:43:08.420Z,10.73
2023-10-01T21:45:59.965Z,11.20
2023-10-01T21:48:30.357Z,11.23
2023-10-01T21:51:03.938Z,10.87
2023-10-01T21:53:36.706Z,11.93
2023-10-01T21:56:07.758Z,10.10
2023-10-01T21:58:38.974Z,11.10
2023-10-01T22:01:22.269Z,11.83
2023-10-01T22:03:53.322Z,11.03
2023-10-01T22:06:30.191Z,10.83
2023-10-01T22:09:01.820Z,11.23
2023-10-01T22:11:32.558Z,12.10
2023-10-01T22:14:07.404Z,10.87
2023-10-01T22:16:45.311Z,11.07
2023-10-01T22:19:16.995Z,10.43
2023-10-01T22:21:50.732Z,11.87
2023-10-01T22:24:28.012Z,10.10
2023-10-01T22:26:57.536Z,11.20
2023-10-01T22:29:29.572Z,10.60
2023-10-01T22:32:00.497Z,10.10
2023-10-01T22:34:30.345Z,10.23
2023-10-01T22:37:00.295Z,10.57
2023-10-01T22:39:49.841Z,10.43
2023-10-01T22:42:32.077Z,11.87
2023-10-01T22:45:08.221Z,11.20
2023-10-01T22:47:42.495Z,10.33
2023-10-01T22:50:14.573Z,11.27
2023-10-01T22:52:46.396Z,11.27
2023-10-01T22:55:17.671Z,10.37
2023-10-01T22:57:47.631Z,11.77
2023-10-01T23:00:23.960Z,10.60
2023-10-01T23:02:55.065Z,11.73
2023-10-01T23:05:39.996Z,11.77
2023-10-01T23:08:10.779Z,10.73
2023-10-01T23:10:42.482Z,12.10
2023-10-01T23:13:13.135Z,12.27
2023-10-01T23:15:43.539Z,11.33
2023-10-01T23:18:19.829Z,12.90
2023-10-01T23:20:53.452Z,11.20
2023-10-01T23:23:29.137Z,12.40
2023-10-01T23:26:13.046Z,12.10
2023-10-01T23:28:43.014Z,11.63
2023-10-01T23:31:16.974Z,12.97
2023-10-01T23:33:52.345Z,11.93
2023-10-01T23:36:37.932Z,12.10
2023-10-01T23:39:23.400Z,12.73
2023-10-01T23:41:54.244Z,13.23
2023-10-01T23:44:28.868Z,12.33
2023-10-01T23:46:59.706Z,11.20
2023-10-01T23:49:30.523Z,13.10
2023-10-01T23:52:04.798Z,12.60
2023-10-01T23:54:38.469Z,12.80
2023-10-01T23:57:14.964Z,12.43
2023-10-01T23:59:50.778Z,12.97
